sensor_id;sensor_type;location;lat;lon;timestamp;temperature;humidity
12166;DHT22;6146;48.128;11.476;2022-11-12T00:00:42;3.40;99.90
12166;DHT22;6146;48.128;11.476;2022-11-12T00:03:09;3.30;99.90
12166;DHT22;6146;48.128;11.476;2022-11-12T00:05:35;3.30;99.90
12166;DHT22;6146;48.128;11.476;2022-11-12T00:08:01;3.20;99.90
12166;DHT22;6146;48.128;11.476;2022-11-12T00:10:26;3.20;99.90
12166;DHT22;6146;48.128;11.476;2022-11-12T00:12:52;3.20;99.90
12166;DHT22;6146;48.128;11.476;2022-11-12T00:15:18;3.20;99.90
12166;DHT22;6146;48.128;11.476;2022-11-12T00:17:44;3.20;99.90
12166;DHT22;6146;48.128;11.476;2022-11-12T00:20:10;3.20;99.90
12166;DHT22;6146;48.128;11.476;2022-11-12T00:22:36;3.20;99.90
12166;DHT22;6146;48.128;11.476;2022-11-12T00:25:02;3.20;99.90
12166;DHT22;6146;48.128;11.476;2022-11-12T00:27:28;3.20;99.90
12166;DHT22;6146;48.128;11.476;2022-11-12T00:29:55;3.30;99.90
12166;DHT22;6146;48.128;11.476;2022-11-12T00:32:21;3.20;99.90
12166;DHT22;6146;48.128;11.476;2022-11-12T00:34:46;3.20;99.90
12166;DHT22;6146;48.128;11.476;2022-11-12T00:37:12;3.30;99.90
12166;DHT22;6146;48.128;11.476;2022-11-12T00:39:37;3.30;99.90
12166;DHT22;6146;48.128;11.476;2022-11-12T00:42:03;3.30;99.90
12166;DHT22;6146;48.128;11.476;2022-11-12T00:44:28;3.30;99.90
12166;DHT22;6146;48.128;11.476;2022-11-12T00:46:55;3.30;99.90
12166;DHT22;6146;48.128;11.476;2022-11-12T00:49:21;3.30;99.90
12166;DHT22;6146;48.128;11.476;2022-11-12T00:51:46;3.40;99.90
12166;DHT22;6146;48.128;11.476;2022-11-12T00:54:13;3.40;99.90
12166;DHT22;6146;48.128;11.476;2022-11-12T00:56:38;3.30;99.90
12166;DHT22;6146;48.128;11.476;2022-11-12T00:59:04;3.30;99.90
12166;DHT22;6146;48.128;11.476;2022-11-12T01:01:29;3.30;99.90
12166;DHT22;6146;48.128;11.476;2022-11-12T01:03:57;3.40;99.90
12166;DHT22;6146;48.128;11.476;2022-11-12T01:06:23;3.40;99.90
12166;DHT22;6146;48.128;11.476;2022-11-12T01:08:49;3.40;99.90
12166;DHT22;6146;48.128;11.476;2022-11-12T01:11:18;3.40;99.90
12166;DHT22;6146;48.128;11.476;2022-11-12T01:13:46;3.40;99.90
12166;DHT22;6146;48.128;11.476;2022-11-12T01:16:17;3.40;99.90
12166;DHT22;6146;48.128;11.476;2022-11-12T01:18:46;3.50;99.90
12166;DHT22;6146;48.128;11.476;2022-11-12T01:21:13;3.60;99.90
12166;DHT22;6146;48.128;11.476;2022-11-12T01:23:40;3.60;99.90
12166;DHT22;6146;48.128;11.476;2022-11-12T01:26:12;3.60;99.90
12166;DHT22;6146;48.128;11.476;2022-11-12T01:28:38;3.60;99.90
12166;DHT22;6146;48.128;11.476;2022-11-12T01:31:16;3.60;99.90
12166;DHT22;6146;48.128;11.476;2022-11-12T01:33:43;3.60;99.90
12166;DHT22;6146;48.128;11.476;2022-11-12T01:36:10;3.60;99.90
12166;DHT22;6146;48.128;11.476;2022-11-12T01:38:37;3.60;99.90
12166;DHT22;6146;48.128;11.476;2022-11-12T01:41:03;3.60;99.90
12166;DHT22;6146;48.128;11.476;2022-11-12T01:43:29;3.60;99.90
12166;DHT22;6146;48.128;11.476;2022-11-12T01:45:56;3.60;99.90
12166;DHT22;6146;48.128;11.476;2022-11-12T01:48:46;3.60;99.90
12166;DHT22;6146;48.128;11.476;2022-11-12T01:51:13;3.60;99.90
12166;DHT22;6146;48.128;11.476;2022-11-12T01:53:45;3.70;99.90
12166;DHT22;6146;48.128;11.476;2022-11-12T01:56:12;3.70;99.90
12166;DHT22;6146;48.128;11.476;2022-11-12T01:58:39;3.60;99.90
12166;DHT22;6146;48.128;11.476;2022-11-12T02:01:05;3.60;99.90
12166;DHT22;6146;48.128;11.476;2022-11-12T02:03:30;3.60;99.90
12166;DHT22;6146;48.128;11.476;2022-11-12T02:06:07;3.70;99.90
12166;DHT22;6146;48.128;11.476;2022-11-12T02:08:34;3.60;99.90
12166;DHT22;6146;48.128;11.476;2022-11-12T02:11:14;3.60;99.90
12166;DHT22;6146;48.128;11.476;2022-11-12T02:13:40;3.70;99.90
12166;DHT22;6146;48.128;11.476;2022-11-12T02:19:08;3.60;99.90
12166;DHT22;6146;48.128;11.476;2022-11-12T02:21:34;3.60;99.90
12166;DHT22;6146;48.128;11.476;2022-11-12T02:24:26;3.50;99.90
12166;DHT22;6146;48.128;11.476;2022-11-12T02:26:53;3.50;99.90
12166;DHT22;6146;48.128;11.476;2022-11-12T02:29:19;3.50;99.90
12166;DHT22;6146;48.128;11.476;2022-11-12T02:31:45;3.50;99.90
12166;DHT22;6146;48.128;11.476;2022-11-12T02:34:10;3.50;99.90
12166;DHT22;6146;48.128;11.476;2022-11-12T02:36:36;3.50;99.90
12166;DHT22;6146;48.128;11.476;2022-11-12T02:39:03;3.50;99.90
12166;DHT22;6146;48.128;11.476;2022-11-12T02:41:29;3.60;99.90
12166;DHT22;6146;48.128;11.476;2022-11-12T02:43:54;3.60;99.90
12166;DHT22;6146;48.128;11.476;2022-11-12T02:46:20;3.60;99.90
12166;DHT22;6146;48.128;11.476;2022-11-12T02:48:45;3.60;99.90
12166;DHT22;6146;48.128;11.476;2022-11-12T02:51:11;3.60;99.90
12166;DHT22;6146;48.128;11.476;2022-11-12T02:53:37;3.60;99.90
12166;DHT22;6146;48.128;11.476;2022-11-12T02:56:02;3.60;99.90
12166;DHT22;6146;48.128;11.476;2022-11-12T02:58:28;3.60;99.90
12166;DHT22;6146;48.128;11.476;2022-11-12T03:00:55;3.60;99.90
12166;DHT22;6146;48.128;11.476;2022-11-12T03:03:20;3.70;99.90
12166;DHT22;6146;48.128;11.476;2022-11-12T03:05:55;3.70;99.90
12166;DHT22;6146;48.128;11.476;2022-11-12T03:08:21;3.70;99.90
12166;DHT22;6146;48.128;11.476;2022-11-12T03:10:47;3.70;99.90
12166;DHT22;6146;48.128;11.476;2022-11-12T03:13:12;3.60;99.90
12166;DHT22;6146;48.128;11.476;2022-11-12T03:15:38;3.60;99.90
12166;DHT22;6146;48.128;11.476;2022-11-12T03:18:03;3.60;99.90
12166;DHT22;6146;48.128;11.476;2022-11-12T03:20:29;3.60;99.90
12166;DHT22;6146;48.128;11.476;2022-11-12T03:22:55;3.60;99.90
12166;DHT22;6146;48.128;11.476;2022-11-12T03:25:22;3.70;99.90
12166;DHT22;6146;48.128;11.476;2022-11-12T03:27:47;3.70;99.90
12166;DHT22;6146;48.128;11.476;2022-11-12T03:30:13;3.70;99.90
12166;DHT22;6146;48.128;11.476;2022-11-12T03:32:39;3.80;99.90
12166;DHT22;6146;48.128;11.476;2022-11-12T03:35:04;3.80;99.90
12166;DHT22;6146;48.128;11.476;2022-11-12T03:37:30;3.80;99.90
12166;DHT22;6146;48.128;11.476;2022-11-12T03:39:56;3.90;99.90
12166;DHT22;6146;48.128;11.476;2022-11-12T03:42:21;3.90;99.90
12166;DHT22;6146;48.128;11.476;2022-11-12T03:44:47;3.90;99.90
12166;DHT22;6146;48.128;11.476;2022-11-12T03:47:12;4.00;99.90
12166;DHT22;6146;48.128;11.476;2022-11-12T03:49:38;4.00;99.90
12166;DHT22;6146;48.128;11.476;2022-11-12T03:52:04;4.00;99.90
12166;DHT22;6146;48.128;11.476;2022-11-12T03:54:29;4.00;99.90
12166;DHT22;6146;48.128;11.476;2022-11-12T03:56:55;4.00;99.90
12166;DHT22;6146;48.128;11.476;2022-11-12T03:59:20;4.00;99.90
12166;DHT22;6146;48.128;11.476;2022-11-12T04:01:46;3.90;99.90
12166;DHT22;6146;48.128;11.476;2022-11-12T04:04:11;4.00;99.90
12166;DHT22;6146;48.128;11.476;2022-11-12T04:06:37;3.90;99.90
12166;DHT22;6146;48.128;11.476;2022-11-12T04:09:21;3.90;99.90
12166;DHT22;6146;48.128;11.476;2022-11-12T04:11:46;3.90;99.90
12166;DHT22;6146;48.128;11.476;2022-11-12T04:14:12;3.90;99.90
12166;DHT22;6146;48.128;11.476;2022-11-12T04:16:37;3.90;99.90
12166;DHT22;6146;48.128;11.476;2022-11-12T04:19:21;4.00;99.90
12166;DHT22;6146;48.128;11.476;2022-11-12T04:22:08;3.90;99.90
12166;DHT22;6146;48.128;11.476;2022-11-12T04:24:36;3.80;99.90
12166;DHT22;6146;48.128;11.476;2022-11-12T04:27:22;3.80;99.90
12166;DHT22;6146;48.128;11.476;2022-11-12T04:29:48;3.80;99.90
12166;DHT22;6146;48.128;11.476;2022-11-12T04:32:36;3.80;99.90
12166;DHT22;6146;48.128;11.476;2022-11-12T04:35:03;3.80;99.90
12166;DHT22;6146;48.128;11.476;2022-11-12T04:37:30;3.70;99.90
12166;DHT22;6146;48.128;11.476;2022-11-12T04:40:11;3.70;99.90
12166;DHT22;6146;48.128;11.476;2022-11-12T04:42:55;3.80;99.90
12166;DHT22;6146;48.128;11.476;2022-11-12T04:45:40;3.70;99.90
12166;DHT22;6146;48.128;11.476;2022-11-12T04:48:07;3.60;99.90
12166;DHT22;6146;48.128;11.476;2022-11-12T04:50:33;3.60;99.90
12166;DHT22;6146;48.128;11.476;2022-11-12T04:52:58;3.60;99.90
12166;DHT22;6146;48.128;11.476;2022-11-12T04:55:24;3.60;99.90
12166;DHT22;6146;48.128;11.476;2022-11-12T04:57:50;3.70;99.90
12166;DHT22;6146;48.128;11.476;2022-11-12T05:00:16;3.70;99.90
12166;DHT22;6146;48.128;11.476;2022-11-12T05:02:41;3.70;99.90
12166;DHT22;6146;48.128;11.476;2022-11-12T05:05:07;3.70;99.90
12166;DHT22;6146;48.128;11.476;2022-11-12T05:07:33;3.70;99.90
12166;DHT22;6146;48.128;11.476;2022-11-12T05:09:58;3.70;99.90
12166;DHT22;6146;48.128;11.476;2022-11-12T05:12:24;3.70;99.90
12166;DHT22;6146;48.128;11.476;2022-11-12T05:14:49;3.70;99.90
12166;DHT22;6146;48.128;11.476;2022-11-12T05:17:15;3.70;99.90
12166;DHT22;6146;48.128;11.476;2022-11-12T05:19:40;3.70;99.90
12166;DHT22;6146;48.128;11.476;2022-11-12T05:22:07;3.70;99.90
12166;DHT22;6146;48.128;11.476;2022-11-12T05:24:39;3.70;99.90
12166;DHT22;6146;48.128;11.476;2022-11-12T05:27:11;3.70;99.90
12166;DHT22;6146;48.128;11.476;2022-11-12T05:29:37;3.70;99.90
12166;DHT22;6146;48.128;11.476;2022-11-12T05:32:04;3.60;99.90
12166;DHT22;6146;48.128;11.476;2022-11-12T05:34:30;3.60;99.90
12166;DHT22;6146;48.128;11.476;2022-11-12T05:36:56;3.60;99.90
12166;DHT22;6146;48.128;11.476;2022-11-12T05:39:21;3.60;99.90
12166;DHT22;6146;48.128;11.476;2022-11-12T05:41:47;4.70;99.90
12166;DHT22;6146;48.128;11.476;2022-11-12T05:44:13;3.60;99.90
12166;DHT22;6146;48.128;11.476;2022-11-12T05:46:39;3.70;99.90
12166;DHT22;6146;48.128;11.476;2022-11-12T05:49:04;3.70;99.90
12166;DHT22;6146;48.128;11.476;2022-11-12T05:51:30;3.70;99.90
12166;DHT22;6146;48.128;11.476;2022-11-12T05:53:56;3.70;99.90
12166;DHT22;6146;48.128;11.476;2022-11-12T05:56:21;3.70;99.90
12166;DHT22;6146;48.128;11.476;2022-11-12T05:58:47;3.60;99.90
12166;DHT22;6146;48.128;11.476;2022-11-12T06:01:12;3.60;99.90
12166;DHT22;6146;48.128;11.476;2022-11-12T06:03:38;3.80;99.90
12166;DHT22;6146;48.128;11.476;2022-11-12T06:06:04;3.60;99.90
12166;DHT22;6146;48.128;11.476;2022-11-12T06:08:29;3.60;99.90
12166;DHT22;6146;48.128;11.476;2022-11-12T06:10:55;3.70;99.90
12166;DHT22;6146;48.128;11.476;2022-11-12T06:13:23;3.70;99.90
12166;DHT22;6146;48.128;11.476;2022-11-12T06:15:49;3.70;99.90
12166;DHT22;6146;48.128;11.476;2022-11-12T06:18:14;3.70;99.90
12166;DHT22;6146;48.128;11.476;2022-11-12T06:20:40;3.70;99.90
12166;DHT22;6146;48.128;11.476;2022-11-12T06:23:05;3.60;99.90
12166;DHT22;6146;48.128;11.476;2022-11-12T06:25:31;3.70;99.90
12166;DHT22;6146;48.128;11.476;2022-11-12T06:27:57;3.70;99.90
12166;DHT22;6146;48.128;11.476;2022-11-12T06:30:22;3.80;99.90
12166;DHT22;6146;48.128;11.476;2022-11-12T06:32:49;3.80;99.90
12166;DHT22;6146;48.128;11.476;2022-11-12T06:35:15;3.80;99.90
12166;DHT22;6146;48.128;11.476;2022-11-12T06:37:41;3.90;99.90
12166;DHT22;6146;48.128;11.476;2022-11-12T06:40:07;4.00;99.90
12166;DHT22;6146;48.128;11.476;2022-11-12T06:42:33;3.90;99.90
12166;DHT22;6146;48.128;11.476;2022-11-12T06:44:59;3.90;99.90
12166;DHT22;6146;48.128;11.476;2022-11-12T06:47:25;3.90;99.90
12166;DHT22;6146;48.128;11.476;2022-11-12T06:49:50;4.00;99.90
12166;DHT22;6146;48.128;11.476;2022-11-12T06:52:16;3.90;99.90
12166;DHT22;6146;48.128;11.476;2022-11-12T06:54:42;4.00;99.90
12166;DHT22;6146;48.128;11.476;2022-11-12T06:57:07;4.10;99.90
12166;DHT22;6146;48.128;11.476;2022-11-12T06:59:33;5.10;99.90
12166;DHT22;6146;48.128;11.476;2022-11-12T07:01:58;4.10;99.90
12166;DHT22;6146;48.128;11.476;2022-11-12T07:04:24;4.10;99.90
12166;DHT22;6146;48.128;11.476;2022-11-12T07:06:50;4.20;99.90
12166;DHT22;6146;48.128;11.476;2022-11-12T07:09:15;4.30;99.90
12166;DHT22;6146;48.128;11.476;2022-11-12T07:11:41;4.30;99.90
12166;DHT22;6146;48.128;11.476;2022-11-12T07:14:06;4.40;99.90
12166;DHT22;6146;48.128;11.476;2022-11-12T07:16:33;4.50;99.90
12166;DHT22;6146;48.128;11.476;2022-11-12T07:18:58;4.50;99.90
12166;DHT22;6146;48.128;11.476;2022-11-12T07:21:25;4.60;99.90
12166;DHT22;6146;48.128;11.476;2022-11-12T07:23:50;4.50;99.90
12166;DHT22;6146;48.128;11.476;2022-11-12T07:26:21;4.50;99.90
12166;DHT22;6146;48.128;11.476;2022-11-12T07:28:48;4.60;99.90
12166;DHT22;6146;48.128;11.476;2022-11-12T07:31:16;4.70;99.90
12166;DHT22;6146;48.128;11.476;2022-11-12T07:33:42;4.80;99.90
12166;DHT22;6146;48.128;11.476;2022-11-12T07:36:13;4.80;99.90
12166;DHT22;6146;48.128;11.476;2022-11-12T07:38:41;4.90;99.90
12166;DHT22;6146;48.128;11.476;2022-11-12T07:41:10;5.00;99.90
12166;DHT22;6146;48.128;11.476;2022-11-12T07:43:36;5.20;99.90
12166;DHT22;6146;48.128;11.476;2022-11-12T07:46:08;5.40;99.90
12166;DHT22;6146;48.128;11.476;2022-11-12T07:48:34;5.40;99.90
12166;DHT22;6146;48.128;11.476;2022-11-12T07:51:05;5.50;99.90
12166;DHT22;6146;48.128;11.476;2022-11-12T07:53:31;5.50;99.90
12166;DHT22;6146;48.128;11.476;2022-11-12T07:56:01;5.60;99.90
12166;DHT22;6146;48.128;11.476;2022-11-12T07:58:30;5.60;99.90
12166;DHT22;6146;48.128;11.476;2022-11-12T08:00:56;5.60;99.90
12166;DHT22;6146;48.128;11.476;2022-11-12T08:03:22;5.70;99.90
12166;DHT22;6146;48.128;11.476;2022-11-12T08:05:48;5.70;99.90
12166;DHT22;6146;48.128;11.476;2022-11-12T08:08:13;5.60;99.90
12166;DHT22;6146;48.128;11.476;2022-11-12T08:10:39;5.60;99.90
12166;DHT22;6146;48.128;11.476;2022-11-12T08:13:05;5.60;99.90
12166;DHT22;6146;48.128;11.476;2022-11-12T08:15:31;5.80;99.90
12166;DHT22;6146;48.128;11.476;2022-11-12T08:17:56;6.00;99.90
12166;DHT22;6146;48.128;11.476;2022-11-12T08:20:22;6.20;99.90
12166;DHT22;6146;48.128;11.476;2022-11-12T08:22:49;6.20;99.90
12166;DHT22;6146;48.128;11.476;2022-11-12T08:25:15;6.40;99.90
12166;DHT22;6146;48.128;11.476;2022-11-12T08:27:41;6.60;99.90
12166;DHT22;6146;48.128;11.476;2022-11-12T08:30:07;6.60;99.90
12166;DHT22;6146;48.128;11.476;2022-11-12T08:32:33;6.70;99.90
12166;DHT22;6146;48.128;11.476;2022-11-12T08:34:58;6.80;99.90
12166;DHT22;6146;48.128;11.476;2022-11-12T08:37:24;6.70;99.90
12166;DHT22;6146;48.128;11.476;2022-11-12T08:39:49;7.50;99.90
12166;DHT22;6146;48.128;11.476;2022-11-12T08:42:15;6.80;99.90
12166;DHT22;6146;48.128;11.476;2022-11-12T08:44:40;6.90;99.90
12166;DHT22;6146;48.128;11.476;2022-11-12T08:47:06;7.10;99.90
12166;DHT22;6146;48.128;11.476;2022-11-12T08:49:31;7.30;99.90
12166;DHT22;6146;48.128;11.476;2022-11-12T08:51:57;7.40;99.90
12166;DHT22;6146;48.128;11.476;2022-11-12T08:54:23;7.50;99.90
12166;DHT22;6146;48.128;11.476;2022-11-12T08:56:49;7.50;99.90
12166;DHT22;6146;48.128;11.476;2022-11-12T08:59:14;7.50;99.90
12166;DHT22;6146;48.128;11.476;2022-11-12T09:01:40;7.70;99.90
12166;DHT22;6146;48.128;11.476;2022-11-12T09:04:06;7.50;99.90
12166;DHT22;6146;48.128;11.476;2022-11-12T09:06:31;7.40;99.90
12166;DHT22;6146;48.128;11.476;2022-11-12T09:08:57;7.50;99.90
12166;DHT22;6146;48.128;11.476;2022-11-12T09:11:22;7.60;99.90
12166;DHT22;6146;48.128;11.476;2022-11-12T09:13:48;7.50;99.90
12166;DHT22;6146;48.128;11.476;2022-11-12T09:16:16;7.50;99.90
12166;DHT22;6146;48.128;11.476;2022-11-12T09:18:42;7.30;99.90
12166;DHT22;6146;48.128;11.476;2022-11-12T09:21:09;7.30;99.90
12166;DHT22;6146;48.128;11.476;2022-11-12T09:23:36;7.40;99.90
12166;DHT22;6146;48.128;11.476;2022-11-12T09:26:02;7.30;99.90
12166;DHT22;6146;48.128;11.476;2022-11-12T09:28:28;7.40;99.90
12166;DHT22;6146;48.128;11.476;2022-11-12T09:30:54;7.30;99.90
12166;DHT22;6146;48.128;11.476;2022-11-12T09:33:29;7.30;99.90
12166;DHT22;6146;48.128;11.476;2022-11-12T09:35:55;7.50;99.90
12166;DHT22;6146;48.128;11.476;2022-11-12T09:38:23;7.50;99.90
12166;DHT22;6146;48.128;11.476;2022-11-12T09:43:20;7.70;99.90
12166;DHT22;6146;48.128;11.476;2022-11-12T09:45:48;7.80;99.90
12166;DHT22;6146;48.128;11.476;2022-11-12T09:48:20;8.10;99.90
12166;DHT22;6146;48.128;11.476;2022-11-12T09:50:58;8.30;99.90
12166;DHT22;6146;48.128;11.476;2022-11-12T09:53:32;8.30;99.90
12166;DHT22;6146;48.128;11.476;2022-11-12T09:55:58;8.40;99.90
12166;DHT22;6146;48.128;11.476;2022-11-12T09:58:24;8.20;99.90
12166;DHT22;6146;48.128;11.476;2022-11-12T10:00:56;8.20;99.90
12166;DHT22;6146;48.128;11.476;2022-11-12T10:03:33;8.40;99.90
12166;DHT22;6146;48.128;11.476;2022-11-12T10:06:16;8.40;99.90
12166;DHT22;6146;48.128;11.476;2022-11-12T10:09:00;8.50;99.90
12166;DHT22;6146;48.128;11.476;2022-11-12T10:17:05;9.40;99.90
12166;DHT22;6146;48.128;11.476;2022-11-12T10:20:07;9.40;99.90
12166;DHT22;6146;48.128;11.476;2022-11-12T10:25:17;9.50;99.90
12166;DHT22;6146;48.128;11.476;2022-11-12T10:27:44;9.60;99.90
12166;DHT22;6146;48.128;11.476;2022-11-12T10:30:21;9.50;99.90
12166;DHT22;6146;48.128;11.476;2022-11-12T10:32:48;9.50;99.90
12166;DHT22;6146;48.128;11.476;2022-11-12T10:35:21;9.70;99.90
12166;DHT22;6146;48.128;11.476;2022-11-12T10:37:58;10.10;99.90
12166;DHT22;6146;48.128;11.476;2022-11-12T10:40:29;11.00;99.90
12166;DHT22;6146;48.128;11.476;2022-11-12T10:45:22;12.80;99.90
12166;DHT22;6146;48.128;11.476;2022-11-12T10:47:48;13.00;99.90
12166;DHT22;6146;48.128;11.476;2022-11-12T10:51:02;13.90;99.90
12166;DHT22;6146;48.128;11.476;2022-11-12T10:53:10;14.70;99.90
12166;DHT22;6146;48.128;11.476;2022-11-12T10:55:39;14.90;99.90
12166;DHT22;6146;48.128;11.476;2022-11-12T10:58:18;15.50;99.90
12166;DHT22;6146;48.128;11.476;2022-11-12T11:00:58;16.90;99.90
12166;DHT22;6146;48.128;11.476;2022-11-12T11:03:26;17.40;99.90
12166;DHT22;6146;48.128;11.476;2022-11-12T11:06:06;17.40;99.90
12166;DHT22;6146;48.128;11.476;2022-11-12T11:08:44;17.80;99.90
12166;DHT22;6146;48.128;11.476;2022-11-12T11:13:42;18.50;98.60
12166;DHT22;6146;48.128;11.476;2022-11-12T11:16:19;19.10;96.50
12166;DHT22;6146;48.128;11.476;2022-11-12T11:18:48;19.70;95.10
12166;DHT22;6146;48.128;11.476;2022-11-12T11:23:56;20.40;92.10
12166;DHT22;6146;48.128;11.476;2022-11-12T11:29:07;21.20;87.90
12166;DHT22;6146;48.128;11.476;2022-11-12T11:31:54;20.80;87.60
12166;DHT22;6146;48.128;11.476;2022-11-12T11:34:27;20.60;87.40
12166;DHT22;6146;48.128;11.476;2022-11-12T11:37:15;20.10;89.00
12166;DHT22;6146;48.128;11.476;2022-11-12T11:56:30;18.10;92.80
12166;DHT22;6146;48.128;11.476;2022-11-12T11:59:23;17.80;92.80
12166;DHT22;6146;48.128;11.476;2022-11-12T12:07:36;16.60;95.60
12166;DHT22;6146;48.128;11.476;2022-11-12T12:10:29;16.20;96.20
12166;DHT22;6146;48.128;11.476;2022-11-12T12:13:17;16.10;96.80
12166;DHT22;6146;48.128;11.476;2022-11-12T12:16:09;15.70;98.20
12166;DHT22;6146;48.128;11.476;2022-11-12T12:19:03;15.60;98.60
12166;DHT22;6146;48.128;11.476;2022-11-12T12:21:32;15.70;99.30
12166;DHT22;6146;48.128;11.476;2022-11-12T12:24:04;15.90;98.00
12166;DHT22;6146;48.128;11.476;2022-11-12T12:26:47;15.90;98.50
12166;DHT22;6146;48.128;11.476;2022-11-12T12:29:18;16.00;98.30
12166;DHT22;6146;48.128;11.476;2022-11-12T12:32:04;16.20;97.90
12166;DHT22;6146;48.128;11.476;2022-11-12T12:34:34;15.70;99.00
12166;DHT22;6146;48.128;11.476;2022-11-12T12:37:20;15.90;99.20
12166;DHT22;6146;48.128;11.476;2022-11-12T12:39:51;16.20;98.70
12166;DHT22;6146;48.128;11.476;2022-11-12T12:42:32;16.30;98.10
12166;DHT22;6146;48.128;11.476;2022-11-12T12:45:03;16.10;98.40
12166;DHT22;6146;48.128;11.476;2022-11-12T12:47:39;15.90;98.60
12166;DHT22;6146;48.128;11.476;2022-11-12T12:50:12;15.60;99.10
12166;DHT22;6146;48.128;11.476;2022-11-12T12:53:42;15.40;99.60
12166;DHT22;6146;48.128;11.476;2022-11-12T12:55:48;15.30;99.80
12166;DHT22;6146;48.128;11.476;2022-11-12T12:58:27;15.20;99.90
12166;DHT22;6146;48.128;11.476;2022-11-12T13:06:15;14.50;99.90
12166;DHT22;6146;48.128;11.476;2022-11-12T13:08:48;14.20;99.90
12166;DHT22;6146;48.128;11.476;2022-11-12T13:11:47;13.90;99.90
12166;DHT22;6146;48.128;11.476;2022-11-12T13:17:08;13.40;99.90
12166;DHT22;6146;48.128;11.476;2022-11-12T13:19:38;13.20;99.90
12166;DHT22;6146;48.128;11.476;2022-11-12T13:35:29;12.90;99.90
12166;DHT22;6146;48.128;11.476;2022-11-12T13:38:00;12.00;99.90
12166;DHT22;6146;48.128;11.476;2022-11-12T13:45:33;11.80;99.90
12166;DHT22;6146;48.128;11.476;2022-11-12T13:48:12;11.80;99.90
12166;DHT22;6146;48.128;11.476;2022-11-12T13:50:40;11.80;99.90
12166;DHT22;6146;48.128;11.476;2022-11-12T13:53:07;11.80;99.90
12166;DHT22;6146;48.128;11.476;2022-11-12T13:55:35;11.70;99.90
12166;DHT22;6146;48.128;11.476;2022-11-12T13:58:00;11.60;99.90
12166;DHT22;6146;48.128;11.476;2022-11-12T14:00:27;11.60;99.90
12166;DHT22;6146;48.128;11.476;2022-11-12T14:03:03;11.40;99.90
12166;DHT22;6146;48.128;11.476;2022-11-12T14:05:31;11.30;99.90
12166;DHT22;6146;48.128;11.476;2022-11-12T14:08:17;11.30;99.90
12166;DHT22;6146;48.128;11.476;2022-11-12T14:11:24;11.20;99.90
12166;DHT22;6146;48.128;11.476;2022-11-12T14:16:47;10.90;99.90
12166;DHT22;6146;48.128;11.476;2022-11-12T14:19:39;10.70;99.90
12166;DHT22;6146;48.128;11.476;2022-11-12T14:22:18;10.60;99.90
12166;DHT22;6146;48.128;11.476;2022-11-12T14:24:44;10.50;99.90
12166;DHT22;6146;48.128;11.476;2022-11-12T14:30:17;10.20;99.90
12166;DHT22;6146;48.128;11.476;2022-11-12T14:32:45;10.10;99.90
12166;DHT22;6146;48.128;11.476;2022-11-12T14:35:27;9.90;99.90
12166;DHT22;6146;48.128;11.476;2022-11-12T14:38:17;9.80;99.90
12166;DHT22;6146;48.128;11.476;2022-11-12T14:43:23;9.60;99.90
12166;DHT22;6146;48.128;11.476;2022-11-12T14:45:51;9.60;99.90
12166;DHT22;6146;48.128;11.476;2022-11-12T14:48:17;9.50;99.90
12166;DHT22;6146;48.128;11.476;2022-11-12T14:50:45;9.50;99.90
12166;DHT22;6146;48.128;11.476;2022-11-12T14:53:28;9.40;99.90
12166;DHT22;6146;48.128;11.476;2022-11-12T14:55:55;9.30;99.90
12166;DHT22;6146;48.128;11.476;2022-11-12T14:58:22;9.20;99.90
12166;DHT22;6146;48.128;11.476;2022-11-12T15:00:52;9.10;99.90
12166;DHT22;6146;48.128;11.476;2022-11-12T15:03:21;9.00;99.90
12166;DHT22;6146;48.128;11.476;2022-11-12T15:08:29;8.80;99.90
12166;DHT22;6146;48.128;11.476;2022-11-12T15:10:56;8.70;99.90
12166;DHT22;6146;48.128;11.476;2022-11-12T15:13:24;8.50;99.90
12166;DHT22;6146;48.128;11.476;2022-11-12T15:16:07;8.40;99.90
12166;DHT22;6146;48.128;11.476;2022-11-12T15:18:34;8.30;99.90
12166;DHT22;6146;48.128;11.476;2022-11-12T15:21:22;8.20;99.90
12166;DHT22;6146;48.128;11.476;2022-11-12T15:24:16;8.10;99.90
12166;DHT22;6146;48.128;11.476;2022-11-12T15:26:47;7.90;99.90
12166;DHT22;6146;48.128;11.476;2022-11-12T15:31:44;7.70;99.90
12166;DHT22;6146;48.128;11.476;2022-11-12T15:36:55;7.50;99.90
12166;DHT22;6146;48.128;11.476;2022-11-12T15:39:23;7.40;99.90
12166;DHT22;6146;48.128;11.476;2022-11-12T15:42:11;7.30;99.90
12166;DHT22;6146;48.128;11.476;2022-11-12T15:44:37;7.20;99.90
12166;DHT22;6146;48.128;11.476;2022-11-12T15:47:03;7.10;99.90
12166;DHT22;6146;48.128;11.476;2022-11-12T15:49:29;7.10;99.90
12166;DHT22;6146;48.128;11.476;2022-11-12T15:51:54;7.00;99.90
12166;DHT22;6146;48.128;11.476;2022-11-12T15:54:20;7.00;99.90
12166;DHT22;6146;48.128;11.476;2022-11-12T15:56:46;7.00;99.90
12166;DHT22;6146;48.128;11.476;2022-11-12T15:59:14;7.00;99.90
12166;DHT22;6146;48.128;11.476;2022-11-12T16:01:41;7.00;99.90
12166;DHT22;6146;48.128;11.476;2022-11-12T16:04:08;7.00;99.90
12166;DHT22;6146;48.128;11.476;2022-11-12T16:06:35;7.00;99.90
12166;DHT22;6146;48.128;11.476;2022-11-12T16:09:00;7.00;99.90
12166;DHT22;6146;48.128;11.476;2022-11-12T16:11:26;7.00;99.90
12166;DHT22;6146;48.128;11.476;2022-11-12T16:14:04;7.10;99.90
12166;DHT22;6146;48.128;11.476;2022-11-12T16:16:32;7.10;99.90
12166;DHT22;6146;48.128;11.476;2022-11-12T16:18:58;7.10;99.90
12166;DHT22;6146;48.128;11.476;2022-11-12T16:21:23;7.10;99.90
12166;DHT22;6146;48.128;11.476;2022-11-12T16:23:49;7.10;99.90
12166;DHT22;6146;48.128;11.476;2022-11-12T16:26:19;7.20;99.90
12166;DHT22;6146;48.128;11.476;2022-11-12T16:28:46;7.20;99.90
12166;DHT22;6146;48.128;11.476;2022-11-12T16:31:11;7.20;99.90
12166;DHT22;6146;48.128;11.476;2022-11-12T16:33:37;7.20;99.90
12166;DHT22;6146;48.128;11.476;2022-11-12T16:36:09;7.20;99.90
12166;DHT22;6146;48.128;11.476;2022-11-12T16:38:35;7.20;99.90
12166;DHT22;6146;48.128;11.476;2022-11-12T16:41:01;7.20;99.90
12166;DHT22;6146;48.128;11.476;2022-11-12T16:43:26;7.20;99.90
12166;DHT22;6146;48.128;11.476;2022-11-12T16:45:52;7.30;99.90
12166;DHT22;6146;48.128;11.476;2022-11-12T16:48:20;7.30;99.90
12166;DHT22;6146;48.128;11.476;2022-11-12T16:50:46;7.40;99.90
12166;DHT22;6146;48.128;11.476;2022-11-12T16:53:12;7.40;99.90
12166;DHT22;6146;48.128;11.476;2022-11-12T16:55:38;7.40;99.90
12166;DHT22;6146;48.128;11.476;2022-11-12T16:58:03;7.50;99.90
12166;DHT22;6146;48.128;11.476;2022-11-12T17:00:29;7.50;99.90
12166;DHT22;6146;48.128;11.476;2022-11-12T17:02:54;7.50;99.90
12166;DHT22;6146;48.128;11.476;2022-11-12T17:05:22;7.50;99.90
12166;DHT22;6146;48.128;11.476;2022-11-12T17:07:49;7.50;99.90
12166;DHT22;6146;48.128;11.476;2022-11-12T17:10:18;7.50;99.90
12166;DHT22;6146;48.128;11.476;2022-11-12T17:12:48;7.40;99.90
12166;DHT22;6146;48.128;11.476;2022-11-12T17:15:14;7.40;99.90
12166;DHT22;6146;48.128;11.476;2022-11-12T17:17:40;7.40;99.90
12166;DHT22;6146;48.128;11.476;2022-11-12T17:20:05;7.40;99.90
12166;DHT22;6146;48.128;11.476;2022-11-12T17:22:33;7.40;99.90
12166;DHT22;6146;48.128;11.476;2022-11-12T17:24:58;7.40;99.90